CheckWX is a tool to help pilots better visualize weather data.  It is not intended as a substitute for an official pre-flight weather briefing.

14:20:09 UTC

EKRN METAR
Bornholm Airport
Rønne, Denmark
Current

30 mins ago

EKRN 221350Z AUTO 06014KT 9999 NCD 14/04 Q1021
Observed
Apr-22 @ 13:50 UTC
Wind
  • 060° at 14 KTS
Visibility
10,000+ meters
Flight Rules
VFR
Cloud Levels
  • Clear skies
Temperature
14°C / 57°F
Dewpoint
C / 39°F
Humidity
51%
Altimeter
30.15" Hg
Pressure
1020.92 hPa
Previous

60 mins ago

EKRN 221320Z AUTO 08014KT 9999 NCD 14/03 Q1022
Observed
Apr-22 @ 13:20 UTC
Wind
  • 080° at 14 KTS
Visibility
10,000+ meters
Flight Rules
VFR
Cloud Levels
  • Clear skies
Temperature
14°C / 57°F
Dewpoint
C / 37°F
Humidity
48%
Altimeter
30.18" Hg
Pressure
1021.92 hPa
Previous

2 hours ago

EKRN 221250Z AUTO 08013KT 9999 NCD 14/02 Q1022
Observed
Apr-22 @ 12:50 UTC
Wind
  • 080° at 13 KTS
Visibility
10,000+ meters
Flight Rules
VFR
Cloud Levels
  • Clear skies
Temperature
14°C / 57°F
Dewpoint
C / 36°F
Humidity
44%
Altimeter
30.18" Hg
Pressure
1021.92 hPa